Time;durP1;ratioP1;P1;durP2;ratioP2;P2;SDS_P1;SDS_P2;PMS_P1;PMS_P2;Temp;Humidity;BMP_temperature;BMP_pressure;BME280_temperature;BME280_humidity;BME280_pressure;Samples;Min_cycle;Max_cycle;Signal;HPM_P1;HPM_P2
2022/05/06 00:02:21;;;;;;;18.70;14.30;;;8.60;99.90;;;;;;5015974;28;20040;-79
2022/05/06 00:04:47;;;;;;;17.55;14.25;;;8.60;99.90;;;;;;5022567;28;20045;-79
2022/05/06 00:07:12;;;;;;;16.25;13.57;;;8.50;99.90;;;;;;5026872;28;20068;-78
2022/05/06 00:09:42;;;;;;;23.55;14.07;;;8.50;99.90;;;;;;5027169;28;20124;-78
2022/05/06 00:12:08;;;;;;;18.75;14.98;;;8.50;99.90;;;;;;5016604;28;20127;-78
2022/05/06 00:14:37;;;;;;;16.67;13.48;;;8.50;99.90;;;;;;5033621;28;20071;-79
2022/05/06 00:17:03;;;;;;;19.40;14.88;;;8.50;99.90;;;;;;5051652;28;20047;-79
2022/05/06 00:19:29;;;;;;;17.83;14.38;;;8.40;99.90;;;;;;5033598;28;20102;-79
2022/05/06 00:21:54;;;;;;;16.73;14.23;;;8.40;99.90;;;;;;5024765;28;20049;-79
2022/05/06 00:24:20;;;;;;;20.63;14.70;;;8.30;99.90;;;;;;5025765;28;20045;-79
2022/05/06 00:26:45;;;;;;;16.95;13.40;;;8.30;99.90;;;;;;5031508;28;20087;-75
2022/05/06 00:29:11;;;;;;;17.90;14.43;;;8.30;99.90;;;;;;5032091;28;20049;-74
2022/05/06 00:31:36;;;;;;;18.67;15.40;;;8.30;99.90;;;;;;5029347;28;20201;-74
2022/05/06 00:34:02;;;;;;;16.33;14.38;;;8.30;99.90;;;;;;5028106;28;20033;-74
2022/05/06 00:36:28;;;;;;;19.40;14.07;;;8.30;99.90;;;;;;5020930;28;20041;-74
2022/05/06 00:38:54;;;;;;;20.17;14.20;;;8.30;99.90;;;;;;5030369;28;20041;-74
2022/05/06 00:41:20;;;;;;;19.75;15.55;;;8.20;99.90;;;;;;5033415;28;20123;-74
2022/05/06 00:43:46;;;;;;;15.93;13.45;;;8.20;99.90;;;;;;5032143;28;20148;-74
2022/05/06 00:46:15;;;;;;;16.40;13.75;;;8.20;99.90;;;;;;5026049;28;20042;-74
2022/05/06 00:48:44;;;;;;;17.75;13.25;;;8.10;99.90;;;;;;5028516;28;20052;-74
2022/05/06 00:51:09;;;;;;;17.95;14.02;;;8.10;99.90;;;;;;5012689;28;20069;-74
2022/05/06 00:53:36;;;;;;;19.05;14.32;;;8.10;99.90;;;;;;5015500;28;20082;-74
2022/05/06 00:56:02;;;;;;;19.15;14.90;;;8.10;99.90;;;;;;5013841;28;20049;-75
2022/05/06 00:58:31;;;;;;;19.02;15.20;;;8.00;99.90;;;;;;5015693;28;20036;-75
2022/05/06 01:00:56;;;;;;;17.15;13.82;;;8.00;99.90;;;;;;5031542;28;20033;-75
2022/05/06 01:03:22;;;;;;;17.83;14.82;;;8.00;99.90;;;;;;5031696;28;20109;-75
2022/05/06 01:05:49;;;;;;;19.83;15.23;;;7.90;99.90;;;;;;5032038;28;20040;-75
2022/05/06 01:08:16;;;;;;;17.05;13.77;;;7.90;99.90;;;;;;5002323;28;20188;-75
2022/05/06 01:10:43;;;;;;;19.50;13.40;;;7.90;99.90;;;;;;5007855;28;20045;-75
2022/05/06 01:13:08;;;;;;;18.17;13.30;;;7.80;99.90;;;;;;5006930;28;20072;-75
2022/05/06 01:15:34;;;;;;;15.95;13.18;;;7.80;99.90;;;;;;5007611;28;20104;-75
2022/05/06 01:18:00;;;;;;;16.05;12.90;;;7.80;99.90;;;;;;5008914;28;20427;-75
2022/05/06 01:20:26;;;;;;;16.13;13.05;;;7.80;99.90;;;;;;4991196;28;20436;-75
2022/05/06 01:22:58;;;;;;;17.77;13.02;;;7.70;99.90;;;;;;4992087;28;20038;-75
2022/05/06 01:25:24;;;;;;;15.95;13.05;;;7.70;99.90;;;;;;5006934;28;20045;-75
2022/05/06 01:27:55;;;;;;;14.07;12.38;;;7.70;99.90;;;;;;5003561;28;20050;-75
2022/05/06 01:30:30;;;;;;;14.68;12.13;;;7.70;99.90;;;;;;5006232;28;20056;-75
2022/05/06 01:32:57;;;;;;;17.17;13.05;;;7.70;99.90;;;;;;4991818;28;20116;-75
2022/05/06 01:35:25;;;;;;;15.18;12.20;;;7.60;99.90;;;;;;4989038;28;20141;-75
2022/05/06 01:37:53;;;;;;;16.65;11.32;;;7.60;99.90;;;;;;4981870;28;20042;-75
2022/05/06 01:40:21;;;;;;;14.85;11.65;;;7.60;99.90;;;;;;5008700;28;20056;-75
2022/05/06 01:42:50;;;;;;;20.70;11.95;;;7.50;99.90;;;;;;5007405;28;20049;-75
2022/05/06 01:45:18;;;;;;;13.15;9.55;;;7.60;99.90;;;;;;5006750;28;20042;-75
2022/05/06 01:47:45;;;;;;;13.55;9.18;;;7.50;99.90;;;;;;5006155;28;20629;-75
2022/05/06 01:50:12;;;;;;;11.25;8.63;;;7.50;99.90;;;;;;5009459;28;20387;-75
2022/05/06 01:52:40;;;;;;;9.25;8.05;;;7.50;99.90;;;;;;4987456;28;20041;-75
2022/05/06 01:55:06;;;;;;;10.32;8.23;;;7.50;99.90;;;;;;5006597;28;20484;-75
2022/05/06 01:57:32;;;;;;;10.07;8.15;;;7.50;99.90;;;;;;5006939;28;20038;-75
2022/05/06 01:59:57;;;;;;;10.73;8.60;;;7.40;99.90;;;;;;4990065;28;20030;-75
2022/05/06 02:02:23;;;;;;;11.70;8.85;;;7.40;99.90;;;;;;5007055;28;20048;-75
2022/05/06 02:07:33;;;;;;;10.50;8.00;;;7.30;99.90;;;;;;5004430;28;20069;-75
2022/05/06 02:09:58;;;;;;;10.38;8.45;;;7.30;99.90;;;;;;5004542;28;20039;-75
2022/05/06 02:12:24;;;;;;;10.63;9.05;;;7.30;99.90;;;;;;5003852;28;20050;-75
2022/05/06 02:14:49;;;;;;;10.70;9.15;;;7.30;99.90;;;;;;5011934;28;20121;-75
2022/05/06 02:17:15;;;;;;;10.57;9.48;;;7.30;99.90;;;;;;5010376;28;20533;-75
2022/05/06 02:19:42;;;;;;;11.70;9.48;;;7.30;99.90;;;;;;5012347;28;20713;-75
2022/05/06 02:22:07;;;;;;;12.75;10.10;;;7.20;99.90;;;;;;5012384;28;20065;-75
2022/05/06 02:24:33;;;;;;;13.75;10.63;;;7.20;99.90;;;;;;4990904;28;20050;-75
2022/05/06 02:26:58;;;;;;;12.13;9.73;;;7.20;99.90;;;;;;5004380;28;20483;-75
2022/05/06 02:29:24;;;;;;;12.55;10.23;;;;;;;;;;5011958;28;20536;-75
2022/05/06 02:34:34;;;;;;;13.25;10.23;;;7.10;99.90;;;;;;5001936;28;20045;-75
2022/05/06 02:36:59;;;;;;;13.82;9.65;;;7.10;99.90;;;;;;5010249;28;20680;-75
2022/05/06 02:39:26;;;;;;;12.80;10.00;;;7.10;99.90;;;;;;5009401;28;20041;-75
2022/05/06 02:41:51;;;;;;;11.60;10.10;;;7.10;99.90;;;;;;5007088;28;20046;-75
2022/05/06 02:44:18;;;;;;;9.93;8.90;;;7.10;99.90;;;;;;5008824;28;20080;-75
2022/05/06 02:46:43;;;;;;;10.60;8.45;;;7.00;99.90;;;;;;5006734;28;20042;-75
2022/05/06 02:49:09;;;;;;;11.40;9.02;;;7.00;99.90;;;;;;5010828;28;20040;-75
2022/05/06 02:51:35;;;;;;;9.52;7.95;;;6.90;99.90;;;;;;4994579;28;20423;-75
2022/05/06 02:54:00;;;;;;;9.23;7.78;;;6.90;99.90;;;;;;5011540;28;20045;-75
2022/05/06 02:56:26;;;;;;;8.40;7.53;;;6.90;99.90;;;;;;5010157;28;20514;-75
2022/05/06 02:58:52;;;;;;;7.45;6.72;;;6.90;99.90;;;;;;5004320;28;20507;-75
2022/05/06 03:01:17;;;;;;;8.13;7.30;;;6.90;99.90;;;;;;5002934;28;20555;-75
2022/05/06 03:03:44;;;;;;;9.27;6.57;;;6.80;99.90;;;;;;4987144;28;20037;-75
2022/05/06 03:06:09;;;;;;;7.10;6.40;;;6.80;99.90;;;;;;5003414;28;20045;-75
2022/05/06 03:08:35;;;;;;;8.55;6.88;;;6.80;99.90;;;;;;5032255;28;20049;-75
2022/05/06 03:11:02;;;;;;;7.47;6.10;;;6.70;99.90;;;;;;5034341;28;20387;-75
2022/05/06 03:13:27;;;;;;;7.00;6.30;;;6.80;99.90;;;;;;5034542;28;20375;-75
2022/05/06 03:15:53;;;;;;;9.68;7.38;;;6.70;99.90;;;;;;5030811;28;20056;-75
2022/05/06 03:18:19;;;;;;;8.70;7.22;;;6.70;99.90;;;;;;5022201;28;20036;-75
2022/05/06 03:20:45;;;;;;;8.20;6.97;;;6.70;99.90;;;;;;5034133;28;20043;-75
2022/05/06 03:23:13;;;;;;;8.30;7.30;;;6.70;99.90;;;;;;5022420;28;20482;-75
2022/05/06 03:25:39;;;;;;;8.82;7.35;;;6.60;99.90;;;;;;5033315;28;20040;-75
2022/05/06 03:28:07;;;;;;;10.35;8.43;;;6.60;99.90;;;;;;5031874;28;20501;-75
2022/05/06 03:30:40;;;;;;;10.48;8.63;;;6.60;99.90;;;;;;5029571;28;20048;-75
2022/05/06 03:33:09;;;;;;;11.35;8.43;;;6.60;99.90;;;;;;5029101;28;20068;-75
2022/05/06 03:35:36;;;;;;;12.20;9.52;;;6.60;99.90;;;;;;5027201;28;20603;-75
2022/05/06 03:38:03;;;;;;;14.30;9.45;;;6.60;99.90;;;;;;5050509;28;20037;-75
2022/05/06 03:40:29;;;;;;;10.88;8.68;;;6.60;99.90;;;;;;5032712;28;20056;-75
2022/05/06 03:42:54;;;;;;;10.88;9.07;;;6.60;99.90;;;;;;5033043;28;20045;-74
2022/05/06 03:45:20;;;;;;;11.38;9.27;;;6.60;99.90;;;;;;5033075;28;20033;-75
2022/05/06 03:47:45;;;;;;;11.65;9.55;;;6.60;99.90;;;;;;5024435;28;20041;-75
2022/05/06 03:52:55;;;;;;;11.45;9.80;;;6.50;99.90;;;;;;5030971;28;20044;-75
2022/05/06 03:55:21;;;;;;;11.10;9.48;;;6.50;99.90;;;;;;5032541;28;20549;-75
2022/05/06 03:57:47;;;;;;;12.18;9.23;;;6.50;99.90;;;;;;5019012;28;20037;-75
2022/05/06 04:00:14;;;;;;;10.48;8.48;;;6.50;99.90;;;;;;5005146;28;20036;-75
2022/05/06 04:02:40;;;;;;;10.38;8.77;;;6.50;99.90;;;;;;5032003;28;20671;-75
2022/05/06 04:05:06;;;;;;;10.25;8.75;;;6.60;99.90;;;;;;5032750;28;20135;-75
2022/05/06 04:07:32;;;;;;;9.32;8.30;;;6.60;99.90;;;;;;5027667;28;20057;-75
2022/05/06 04:09:57;;;;;;;9.93;7.45;;;6.60;99.90;;;;;;5032617;28;20389;-75
2022/05/06 04:12:23;;;;;;;10.45;7.93;;;6.60;99.90;;;;;;5023137;28;20107;-75
2022/05/06 04:14:52;;;;;;;14.75;9.45;;;6.60;99.90;;;;;;5026912;28;20040;-75
2022/05/06 04:17:20;;;;;;;21.73;11.82;;;6.70;99.90;;;;;;5016038;28;20120;-75
2022/05/06 04:25:15;;;;;;;73.15;16.35;;;6.90;99.90;;;;;;5031191;28;20037;-75
2022/05/06 04:27:44;;;;;;;65.32;15.82;;;7.00;99.90;;;;;;5012533;28;20065;-75
2022/05/06 04:30:11;;;;;;;38.60;14.88;;;7.00;99.90;;;;;;5027993;28;20257;-76
2022/05/06 04:32:37;;;;;;;45.70;16.70;;;7.10;99.90;;;;;;5032265;28;20123;-75
2022/05/06 04:35:05;;;;;;;48.00;17.63;;;7.20;99.90;;;;;;5032525;28;20064;-75
2022/05/06 04:37:32;;;;;;;55.17;17.52;;;7.30;99.90;;;;;;5032399;28;20029;-75
2022/05/06 04:39:58;;;;;;;38.60;17.67;;;7.30;99.90;;;;;;5026540;28;20599;-75
2022/05/06 04:42:23;;;;;;;40.80;18.08;;;7.30;99.90;;;;;;5014664;28;20052;-75
2022/05/06 04:44:49;;;;;;;32.75;17.25;;;7.40;99.90;;;;;;5033368;28;20090;-75
2022/05/06 04:47:14;;;;;;;31.20;16.65;;;7.40;99.90;;;;;;5001493;28;20033;-75
2022/05/06 04:49:40;;;;;;;45.17;17.73;;;7.40;99.90;;;;;;5028782;28;20053;-75
2022/05/06 04:52:06;;;;;;;40.00;16.45;;;7.50;99.90;;;;;;5030270;28;20048;-75
2022/05/06 04:54:31;;;;;;;32.08;17.38;;;7.50;99.90;;;;;;5031659;28;20032;-75
2022/05/06 04:56:57;;;;;;;33.92;17.00;;;7.50;99.90;;;;;;5025918;28;20127;-75
2022/05/06 04:59:23;;;;;;;37.22;17.58;;;7.50;99.90;;;;;;5032612;28;20478;-75
2022/05/06 05:01:49;;;;;;;51.03;16.67;;;7.60;99.90;;;;;;5026559;28;20041;-75
2022/05/06 05:04:15;;;;;;;37.63;15.38;;;7.60;99.90;;;;;;5003214;28;20041;-75
2022/05/06 05:06:41;;;;;;;40.38;15.13;;;7.60;99.90;;;;;;5026154;28;20044;-75
2022/05/06 05:09:07;;;;;;;49.95;15.20;;;7.70;99.90;;;;;;5013198;28;20061;-75
2022/05/06 05:11:34;;;;;;;46.90;14.98;;;7.70;99.90;;;;;;4999903;28;20040;-75
2022/05/06 05:14:02;;;;;;;34.00;15.77;;;7.80;99.90;;;;;;5018691;28;20123;-75
2022/05/06 05:16:31;;;;;;;35.17;18.05;;;7.90;99.90;;;;;;5023387;28;20053;-75
2022/05/06 05:18:56;;;;;;;26.38;18.17;;;8.00;99.90;;;;;;5028495;28;20083;-75
2022/05/06 05:21:22;;;;;;;36.90;18.42;;;8.10;99.90;;;;;;5030622;28;20048;-75
2022/05/06 05:23:48;;;;;;;32.78;17.20;;;8.20;99.90;;;;;;5030987;28;20045;-75
2022/05/06 05:26:13;;;;;;;40.22;18.08;;;8.30;99.90;;;;;;5031799;28;20055;-75
2022/05/06 05:28:39;;;;;;;44.30;19.95;;;8.40;99.90;;;;;;5027197;28;20040;-75
2022/05/06 05:31:04;;;;;;;74.28;19.30;;;8.40;99.90;;;;;;5015599;28;20049;-75
2022/05/06 05:33:30;;;;;;;58.97;19.85;;;8.40;99.90;;;;;;5039082;28;20124;-75
2022/05/06 05:35:56;;;;;;;61.78;20.05;;;8.50;99.90;;;;;;5032411;28;20033;-74
2022/05/06 05:38:21;;;;;;;36.03;19.35;;;8.50;99.90;;;;;;5013788;28;20194;-74
2022/05/06 05:40:47;;;;;;;31.13;19.17;;;8.60;99.90;;;;;;5032274;28;20384;-74
2022/05/06 05:48:19;;;;;;;36.92;19.02;;;8.60;99.90;;;;;;5032276;28;20045;-74
2022/05/06 05:48:42;;;;;;;40.88;19.17;;;8.60;99.90;;;;;;5027872;28;20136;-74
2022/05/06 05:51:08;;;;;;;49.00;20.67;;;8.60;99.90;;;;;;5030169;28;20124;-75
2022/05/06 05:53:34;;;;;;;37.80;20.77;;;8.70;99.90;;;;;;5018080;28;20398;-74
2022/05/06 05:56:00;;;;;;;43.25;20.10;;;8.70;99.90;;;;;;5032306;28;20086;-74
2022/05/06 05:58:26;;;;;;;51.10;21.23;;;8.80;99.90;;;;;;5031442;28;20118;-74
2022/05/06 06:00:52;;;;;;;34.00;21.48;;;8.90;99.90;;;;;;5022408;28;20040;-74
2022/05/06 06:03:18;;;;;;;35.50;20.35;;;9.10;99.90;;;;;;5031744;28;20056;-75
2022/05/06 06:05:44;;;;;;;45.05;20.85;;;9.30;99.90;;;;;;5032447;28;20041;-76
2022/05/06 06:08:10;;;;;;;40.78;18.73;;;9.60;99.90;;;;;;5000413;28;20077;-75
2022/05/06 06:10:36;;;;;;;27.77;17.33;;;9.80;99.90;;;;;;5025825;28;20049;-75
2022/05/06 06:13:04;;;;;;;25.95;16.45;;;10.10;99.90;;;;;;5031162;28;20048;-76
2022/05/06 06:15:30;;;;;;;21.10;16.77;;;10.30;99.90;;;;;;5019300;28;20037;-76
2022/05/06 06:17:55;;;;;;;26.58;19.60;;;10.40;99.90;;;;;;5030373;28;20037;-78
2022/05/06 06:20:21;;;;;;;34.10;21.42;;;10.60;99.90;;;;;;5030547;28;20094;-73
2022/05/06 06:22:47;;;;;;;28.65;20.63;;;10.70;99.90;;;;;;5042102;23;20053;-74
2022/05/06 06:25:13;;;;;;;30.83;21.88;;;10.80;99.90;;;;;;5031193;28;20033;-73
2022/05/06 06:27:38;;;;;;;39.42;21.48;;;10.90;99.90;;;;;;5034130;28;20103;-74
2022/05/06 06:30:04;;;;;;;37.45;22.08;;;11.00;99.90;;;;;;5038090;28;20068;-74
2022/05/06 06:32:30;;;;;;;34.80;20.83;;;11.10;99.90;;;;;;5039602;28;20045;-74
2022/05/06 06:34:55;;;;;;;37.53;25.38;;;11.10;99.90;;;;;;5047152;28;20040;-77
2022/05/06 06:37:21;;;;;;;34.58;23.40;;;11.10;99.90;;;;;;5031822;28;20397;-76
2022/05/06 06:39:48;;;;;;;31.33;23.58;;;11.20;99.90;;;;;;5036408;28;20036;-76
2022/05/06 06:42:14;;;;;;;23.25;20.75;;;11.20;99.90;;;;;;5028548;28;20045;-76
2022/05/06 06:44:39;;;;;;;30.08;19.67;;;11.50;99.90;;;;;;5028253;28;20120;-75
2022/05/06 06:47:11;;;;;;;24.05;18.23;;;11.70;99.90;;;;;;5043354;28;20128;-74
2022/05/06 06:49:37;;;;;;;24.15;20.33;;;11.90;99.90;;;;;;5042251;28;20041;-74
2022/05/06 06:52:06;;;;;;;25.33;18.73;;;11.90;99.90;;;;;;5043126;28;20045;-74
2022/05/06 06:54:32;;;;;;;24.67;19.70;;;12.00;99.90;;;;;;5028467;28;20041;-74
2022/05/06 06:56:58;;;;;;;26.33;20.92;;;11.90;99.90;;;;;;5032466;28;20069;-75
2022/05/06 06:59:24;;;;;;;26.02;19.50;;;11.80;99.90;;;;;;5065588;28;20049;-75
2022/05/06 07:01:49;;;;;;;31.83;19.73;;;11.90;99.90;;;;;;5047874;28;20053;-75
2022/05/06 07:04:15;;;;;;;26.60;20.48;;;11.90;99.90;;;;;;5057495;28;20132;-75
2022/05/06 07:12:09;;;;;;;30.25;23.17;;;12.30;99.90;;;;;;5045665;28;20068;-75
2022/05/06 07:14:36;;;;;;;27.23;21.80;;;12.40;99.90;;;;;;5050429;28;20037;-75
2022/05/06 07:17:02;;;;;;;29.02;22.55;;;12.60;99.90;;;;;;5048311;28;20072;-75
2022/05/06 07:19:28;;;;;;;29.42;23.70;;;12.60;99.90;;;;;;5034664;28;20505;-75
2022/05/06 07:21:54;;;;;;;33.35;26.02;;;12.80;99.90;;;;;;5050967;28;20132;-75
2022/05/06 07:24:20;;;;;;;34.10;26.70;;;12.90;99.90;;;;;;5085394;28;20520;-75
2022/05/06 07:26:47;;;;;;;32.20;25.63;;;12.90;99.90;;;;;;5061958;28;20118;-75
2022/05/06 07:29:13;;;;;;;30.35;25.05;;;13.00;99.90;;;;;;5039808;28;20052;-75
2022/05/06 07:31:41;;;;;;;29.85;24.65;;;13.10;99.90;;;;;;5047004;28;20378;-75
2022/05/06 07:34:07;;;;;;;30.65;23.75;;;13.30;99.90;;;;;;5050193;28;20033;-75
2022/05/06 07:36:33;;;;;;;34.50;26.50;;;13.40;99.90;;;;;;5049632;28;20039;-75
2022/05/06 07:38:58;;;;;;;38.85;24.83;;;13.50;99.90;;;;;;5050006;28;20502;-75
2022/05/06 07:41:24;;;;;;;38.75;24.38;;;13.60;99.90;;;;;;5032265;28;20048;-74
2022/05/06 07:43:50;;;;;;;20.58;16.48;;;13.70;99.90;;;;;;5047012;28;20041;-75
2022/05/06 07:46:15;;;;;;;24.52;20.90;;;14.00;99.90;;;;;;5049658;28;20139;-75
2022/05/06 07:48:41;;;;;;;25.52;20.50;;;14.30;99.90;;;;;;5050908;28;20118;-77
2022/05/06 07:51:06;;;;;;;24.42;18.75;;;14.70;99.90;;;;;;5034130;28;20056;-76
2022/05/06 07:53:32;;;;;;;22.73;18.20;;;15.00;99.90;;;;;;5070204;28;20438;-76
2022/05/06 07:55:58;;;;;;;25.50;19.17;;;15.10;99.90;;;;;;5050369;28;20049;-74
2022/05/06 07:58:23;;;;;;;26.77;20.73;;;15.10;99.90;;;;;;5030444;28;20068;-74
2022/05/06 08:00:50;;;;;;;23.63;18.85;;;15.20;99.90;;;;;;5032947;28;20044;-73
2022/05/06 08:06:02;;;;;;;24.88;19.15;;;15.40;99.90;;;;;;5048744;28;20052;-72
2022/05/06 08:08:29;;;;;;;22.55;18.55;;;15.40;99.90;;;;;;5050695;28;20048;-72
2022/05/06 08:10:54;;;;;;;25.15;19.30;;;15.50;99.90;;;;;;5051403;28;20048;-72
2022/05/06 08:13:20;;;;;;;23.92;17.45;;;15.60;99.90;;;;;;5050653;28;20041;-72
2022/05/06 08:15:47;;;;;;;22.80;18.95;;;15.70;99.90;;;;;;5051289;28;20041;-72
2022/05/06 08:18:12;;;;;;;22.05;17.73;;;15.90;99.90;;;;;;5051497;28;20064;-72
2022/05/06 08:20:39;;;;;;;20.33;16.75;;;16.00;99.90;;;;;;5051461;28;20397;-73
2022/05/06 08:23:06;;;;;;;20.88;17.15;;;16.20;99.90;;;;;;5036755;28;20085;-72
2022/05/06 08:25:32;;;;;;;20.98;16.40;;;16.30;99.90;;;;;;5031072;28;20041;-71
2022/05/06 08:27:57;;;;;;;23.20;17.77;;;16.60;99.90;;;;;;5030848;28;20044;-72
2022/05/06 08:30:23;;;;;;;20.20;15.63;;;16.90;99.90;;;;;;5033887;28;20047;-72
2022/05/06 08:32:48;;;;;;;20.17;16.20;;;17.10;99.90;;;;;;5033649;28;20045;-72
2022/05/06 08:35:14;;;;;;;17.92;14.70;;;17.30;99.90;;;;;;5050237;28;20040;-72
2022/05/06 08:37:45;;;;;;;16.55;13.50;;;17.70;98.20;;;;;;5028917;28;20065;-72
2022/05/06 08:40:32;;;;;;;15.57;13.38;;;17.90;99.90;;;;;;5030692;28;20077;-72
2022/05/06 08:42:58;;;;;;;16.60;13.90;;;18.00;96.80;;;;;;5046314;28;20045;-72
2022/05/06 08:50:55;;;;;;;14.05;12.27;;;18.00;97.80;;;;;;5050143;28;20065;-72
2022/05/06 08:53:40;;;;;;;13.25;10.35;;;18.20;98.10;;;;;;5033264;28;20056;-72
2022/05/06 08:56:06;;;;;;;11.25;9.75;;;18.30;98.70;;;;;;5049673;28;20510;-72
2022/05/06 08:58:37;;;;;;;12.15;10.38;;;18.40;95.70;;;;;;5049671;28;20056;-72
2022/05/06 09:01:04;;;;;;;11.27;9.95;;;18.40;95.70;;;;;;5048248;28;20041;-72
2022/05/06 09:03:30;;;;;;;11.20;10.05;;;18.40;96.00;;;;;;5049606;28;20059;-72
2022/05/06 09:05:59;;;;;;;11.57;10.38;;;18.30;95.50;;;;;;5049660;28;20045;-72
2022/05/06 09:08:36;;;;;;;10.20;9.18;;;18.20;96.60;;;;;;5049250;28;20045;-72
2022/05/06 09:11:04;;;;;;;10.00;8.95;;;18.30;96.10;;;;;;5049828;28;20370;-72
2022/05/06 09:13:31;;;;;;;9.25;8.32;;;18.30;95.30;;;;;;5049255;28;20053;-72
2022/05/06 09:16:44;;;;;;;9.63;8.70;;;18.40;95.10;;;;;;5049589;28;20056;-72
2022/05/06 09:19:15;;;;;;;8.70;7.43;;;18.40;95.50;;;;;;5049532;28;20095;-71
2022/05/06 09:22:05;;;;;;;8.35;7.57;;;18.50;95.40;;;;;;5049935;28;20057;-72
2022/05/06 09:24:34;;;;;;;7.95;7.22;;;18.40;97.10;;;;;;5049712;28;20402;-72
2022/05/06 09:27:04;;;;;;;8.52;7.60;;;18.40;95.70;;;;;;5049249;28;20044;-72
2022/05/06 09:29:31;;;;;;;8.80;6.82;;;18.50;96.30;;;;;;5049284;28;20044;-72
2022/05/06 09:32:25;;;;;;;6.63;6.03;;;18.50;97.90;;;;;;5049587;28;20056;-72
2022/05/06 09:35:07;;;;;;;6.15;5.65;;;18.90;94.50;;;;;;5049189;28;20047;-72
2022/05/06 09:37:39;;;;;;;5.82;5.32;;;18.90;97.20;;;;;;5049212;28;20083;-72
2022/05/06 09:40:15;;;;;;;5.10;4.70;;;19.00;95.40;;;;;;5049307;28;20392;-72
2022/05/06 09:42:57;;;;;;;5.50;5.00;;;19.00;95.50;;;;;;5048927;28;20647;-72
2022/05/06 09:45:39;;;;;;;5.82;5.32;;;;;;;;;;5049339;28;20506;-72
2022/05/06 09:48:06;;;;;;;5.65;5.15;;;19.20;95.40;;;;;;5029134;28;20053;-72
2022/05/06 09:50:38;;;;;;;5.40;4.90;;;19.20;94.20;;;;;;5028401;28;20042;-72
2022/05/06 09:53:14;;;;;;;4.47;4.07;;;19.30;92.80;;;;;;5028854;28;20048;-72
2022/05/06 09:55:42;;;;;;;4.40;4.00;;;19.30;92.00;;;;;;5030460;28;20084;-72
2022/05/06 09:58:08;;;;;;;5.05;4.40;;;19.10;93.30;;;;;;5028897;28;20049;-72
2022/05/06 10:00:35;;;;;;;4.53;4.13;;;18.90;93.80;;;;;;5012466;28;20045;-72
2022/05/06 10:03:01;;;;;;;5.00;4.60;;;18.90;94.10;;;;;;5028866;28;20073;-72
2022/05/06 10:05:28;;;;;;;5.05;4.65;;;18.90;93.90;;;;;;5029249;28;20091;-72
2022/05/06 10:07:58;;;;;;;5.10;4.70;;;19.00;93.70;;;;;;5040716;28;20375;-72
2022/05/06 10:10:30;;;;;;;5.57;5.00;;;19.10;93.60;;;;;;5049079;28;20429;-72
2022/05/06 10:12:59;;;;;;;5.28;4.85;;;19.30;91.60;;;;;;5050451;28;20135;-72
2022/05/06 10:15:27;;;;;;;4.63;4.20;;;19.30;92.20;;;;;;5032819;28;20045;-72
2022/05/06 10:17:55;;;;;;;5.05;4.60;;;19.30;90.90;;;;;;5050176;28;20045;-72
2022/05/06 10:20:41;;;;;;;5.10;4.70;;;19.30;91.80;;;;;;5049032;28;20246;-72
2022/05/06 10:23:08;;;;;;;5.65;4.35;;;19.20;93.70;;;;;;5048598;28;20053;-72
2022/05/06 10:25:42;;;;;;;4.57;4.15;;;19.20;94.80;;;;;;5047205;28;20041;-72
2022/05/06 10:34:14;;;;;;;5.43;4.93;;;19.60;90.70;;;;;;5051594;28;20053;-72
2022/05/06 10:36:48;;;;;;;4.97;4.53;;;19.70;90.90;;;;;;5052714;28;20063;-72
2022/05/06 10:39:21;;;;;;;6.30;4.30;;;19.70;91.70;;;;;;5052213;28;20128;-72
2022/05/06 10:42:09;;;;;;;6.47;4.10;;;19.90;90.20;;;;;;5052140;28;20083;-72
2022/05/06 10:44:44;;;;;;;5.10;3.72;;;20.00;91.90;;;;;;5052498;28;20051;-72
2022/05/06 10:47:13;;;;;;;4.20;3.80;;;20.20;90.00;;;;;;5053472;28;20139;-73
2022/05/06 10:49:38;;;;;;;5.68;4.57;;;20.30;88.20;;;;;;5052201;28;20132;-72
2022/05/06 10:52:20;;;;;;;5.88;3.88;;;20.40;89.80;;;;;;5050664;28;20174;-72
2022/05/06 10:54:48;;;;;;;;;;;20.50;89.10;;;;;;5035645;28;20079;-72
2022/05/06 10:57:18;;;;;;;4.53;3.92;;;20.50;86.20;;;;;;5036183;28;19923;-72
2022/05/06 10:59:58;;;;;;;4.18;3.30;;;20.50;88.20;;;;;;5052275;28;20052;-72
2022/05/06 11:02:26;;;;;;;4.38;3.63;;;20.40;87.30;;;;;;5052057;28;20044;-72
2022/05/06 11:04:52;;;;;;;6.00;3.30;;;20.50;85.20;;;;;;5035426;28;20095;-72
2022/05/06 11:07:18;;;;;;;4.10;3.75;;;20.50;85.20;;;;;;5046360;28;20088;-72
2022/05/06 11:09:44;;;;;;;4.47;4.07;;;20.50;85.70;;;;;;5031833;28;20045;-72
2022/05/06 11:12:10;;;;;;;4.45;3.28;;;20.60;84.80;;;;;;5031742;28;20050;-72
2022/05/06 11:14:35;;;;;;;3.45;3.05;;;20.70;82.30;;;;;;5033551;28;20584;-72
2022/05/06 11:17:17;;;;;;;3.15;2.95;;;20.70;81.40;;;;;;5051936;28;20040;-72
2022/05/06 11:19:43;;;;;;;3.47;3.17;;;20.70;81.70;;;;;;5052879;28;20060;-72
2022/05/06 11:22:09;;;;;;;4.00;2.80;;;20.80;81.30;;;;;;5051472;28;20060;-72
2022/05/06 11:24:35;;;;;;;3.58;2.20;;;20.80;80.80;;;;;;5051505;28;20045;-72
2022/05/06 11:27:14;;;;;;;3.28;2.97;;;20.90;81.00;;;;;;5051871;28;20129;-72
2022/05/06 11:29:50;;;;;;;4.05;2.35;;;21.00;79.80;;;;;;5051327;28;20044;-72
2022/05/06 11:32:17;;;;;;;13.55;2.78;;;21.10;79.40;;;;;;5035191;28;20045;-72
2022/05/06 11:35:01;;;;;;;3.13;2.60;;;21.10;78.00;;;;;;5031436;28;20121;-72
2022/05/06 11:37:30;;;;;;;4.57;2.78;;;21.20;77.30;;;;;;5031935;28;20068;-72
2022/05/06 11:42:40;;;;;;;1.83;1.73;;;21.00;77.00;;;;;;5031294;28;20053;-72
2022/05/06 11:47:51;;;;;;;4.88;2.15;;;20.80;75.90;;;;;;5050785;28;20052;-72
2022/05/06 11:50:17;;;;;;;2.40;2.20;;;20.80;77.80;;;;;;5034463;28;20051;-72
2022/05/06 11:52:47;;;;;;;3.25;2.38;;;20.80;77.30;;;;;;5050895;28;20048;-72
2022/05/06 11:55:15;;;;;;;2.30;2.10;;;20.80;77.30;;;;;;5051045;28;20048;-72
2022/05/06 11:57:41;;;;;;;3.22;2.25;;;20.80;77.90;;;;;;5052318;28;20437;-72
2022/05/06 12:00:08;;;;;;;2.63;1.90;;;20.80;79.30;;;;;;5052425;28;20036;-72
2022/05/06 12:02:33;;;;;;;4.25;2.20;;;20.80;79.10;;;;;;5034210;28;20454;-72
2022/05/06 12:04:59;;;;;;;2.75;2.17;;;21.00;78.40;;;;;;5049266;28;20122;-72
2022/05/06 12:07:42;;;;;;;4.55;2.20;;;21.00;79.10;;;;;;5051527;28;20037;-72
2022/05/06 12:10:08;;;;;;;2.78;2.00;;;20.90;78.40;;;;;;5052917;28;20041;-72
2022/05/06 12:12:33;;;;;;;2.47;1.70;;;20.90;78.40;;;;;;5051170;28;20102;-72
2022/05/06 12:15:09;;;;;;;2.45;2.13;;;21.00;79.00;;;;;;5050774;28;20469;-72
2022/05/06 12:17:36;;;;;;;2.33;1.80;;;20.60;78.00;;;;;;5051784;28;20048;-72
2022/05/06 12:20:03;;;;;;;2.20;2.00;;;20.70;79.80;;;;;;5050771;28;20046;-76
2022/05/06 12:22:28;;;;;;;3.15;2.50;;;20.70;80.00;;;;;;5054561;22;20088;-72
2022/05/06 12:24:56;;;;;;;3.47;1.90;;;21.00;80.60;;;;;;5066745;28;20480;-81
2022/05/06 12:27:34;;;;;;;2.90;2.60;;;21.00;81.50;;;;;;5067676;28;20086;-82
2022/05/06 12:30:01;;;;;;;3.88;1.98;;;21.20;80.80;;;;;;5052939;28;20060;-82
2022/05/06 12:32:30;;;;;;;5.22;2.00;;;21.00;80.70;;;;;;5069487;28;20496;-81
2022/05/06 12:35:07;;;;;;;3.47;2.20;;;20.80;80.80;;;;;;5069625;28;20044;-82
2022/05/06 12:37:32;;;;;;;2.65;2.45;;;21.00;82.30;;;;;;5051926;28;20075;-81
2022/05/06 12:39:59;;;;;;;2.35;2.10;;;21.10;81.10;;;;;;5053393;28;20095;-82
2022/05/06 12:42:25;;;;;;;5.18;2.08;;;21.40;79.90;;;;;;5069973;28;20041;-81
2022/05/06 12:44:51;;;;;;;3.15;1.98;;;21.40;80.60;;;;;;5070457;28;20043;-81
2022/05/06 12:50:11;;;;;;;1.92;1.73;;;21.50;80.30;;;;;;5053058;28;20045;-81
2022/05/06 12:52:37;;;;;;;2.88;1.67;;;21.60;80.70;;;;;;5069744;28;20501;-81
2022/05/06 12:55:06;;;;;;;4.25;1.70;;;21.70;78.40;;;;;;5053446;28;20068;-82
2022/05/06 12:57:32;;;;;;;2.88;1.80;;;21.70;79.30;;;;;;5053765;28;20041;-82
2022/05/06 12:59:58;;;;;;;3.08;1.80;;;21.90;78.70;;;;;;5069757;28;20039;-81
2022/05/06 13:02:23;;;;;;;3.97;2.22;;;21.90;79.10;;;;;;5070409;28;20041;-82
2022/05/06 13:04:49;;;;;;;3.55;2.33;;;22.20;80.00;;;;;;5069423;28;20045;-81
2022/05/06 13:07:16;;;;;;;4.28;2.40;;;22.20;80.00;;;;;;5070187;28;20056;-81
2022/05/06 13:09:42;;;;;;;2.53;2.33;;;22.20;79.80;;;;;;5053429;28;20067;-81
2022/05/06 13:12:09;;;;;;;3.33;2.00;;;22.20;78.20;;;;;;5036236;28;20490;-82
2022/05/06 13:14:35;;;;;;;2.17;1.77;;;22.20;79.90;;;;;;5053476;28;20083;-81
2022/05/06 13:17:00;;;;;;;2.28;2.03;;;22.20;80.10;;;;;;5053328;28;20068;-81
2022/05/06 13:19:29;;;;;;;3.47;2.00;;;22.30;79.90;;;;;;5053499;28;20047;-81
2022/05/06 13:21:55;;;;;;;3.67;1.95;;;22.30;78.70;;;;;;5036390;28;20394;-81
2022/05/06 13:24:21;;;;;;;2.17;1.98;;;22.30;79.20;;;;;;5052526;28;20049;-81
2022/05/06 13:26:47;;;;;;;2.63;1.95;;;22.40;78.60;;;;;;5052218;28;20071;-81
2022/05/06 13:29:12;;;;;;;3.25;2.22;;;22.50;78.00;;;;;;5053095;28;20040;-81